Time;durP1;ratioP1;P1;durP2;ratioP2;P2;SDS_P1;SDS_P2;PMS_P1;PMS_P2;Temp;Humidity;BMP_temperature;BMP_pressure;BME280_temperature;BME280_humidity;BME280_pressure;Samples;Min_cycle;Max_cycle;Signal;HPM_P1;HPM_P2
2022/08/18 00:01:08;;;;;;;13.95;5.10;;;;;;;26.00;64.59;100435.03;2112183;28;20189;-73
2022/08/18 00:02:31;;;;;;;11.57;4.88;;;;;;;26.01;64.87;100427.78;2109633;28;20450;-73
2022/08/18 00:03:54;;;;;;;10.38;4.97;;;;;;;26.01;64.71;100423.25;2107487;28;20067;-74
2022/08/18 00:05:16;;;;;;;11.32;4.80;;;;;;;26.02;65.28;100426.84;2103319;28;20044;-73
2022/08/18 00:06:39;;;;;;;14.02;5.15;;;;;;;26.01;65.55;100425.06;2097771;28;20079;-73
2022/08/18 00:08:02;;;;;;;11.55;5.65;;;;;;;26.02;65.60;100422.28;2094682;28;20052;-74
2022/08/18 00:09:23;;;;;;;11.18;5.00;;;;;;;26.01;65.80;100416.97;2100380;28;20036;-74
2022/08/18 00:10:46;;;;;;;10.50;4.80;;;;;;;26.01;66.11;100420.53;2102762;28;20139;-74
2022/08/18 00:12:13;;;;;;;12.07;4.95;;;;;;;26.02;66.14;100424.13;2108665;28;20067;-74
2022/08/18 00:13:36;;;;;;;11.48;5.15;;;;;;;26.01;66.27;100425.94;2109645;28;20047;-74
2022/08/18 00:15:03;;;;;;;10.18;5.25;;;;;;;26.01;66.53;100431.38;2095286;28;20079;-73
2022/08/18 00:16:25;;;;;;;14.43;5.65;;;;;;;26.00;66.39;100431.44;2103416;28;20075;-74
2022/08/18 00:17:48;;;;;;;18.90;5.90;;;;;;;25.99;66.74;100419.75;2089312;28;20148;-74
2022/08/18 00:19:09;;;;;;;10.95;6.28;;;;;;;25.98;66.63;100422.56;2100064;28;20040;-73
2022/08/18 00:20:32;;;;;;;9.13;4.45;;;;;;;25.96;66.79;100424.47;2107691;28;20066;-74
2022/08/18 00:21:53;;;;;;;10.05;4.72;;;;;;;25.96;66.75;100425.34;2113138;28;20052;-74
2022/08/18 00:23:17;;;;;;;10.65;4.80;;;;;;;25.96;66.91;100417.22;2114127;28;20541;-74
2022/08/18 00:24:38;;;;;;;11.05;5.43;;;;;;;25.96;66.85;100424.47;2105809;28;20040;-74
2022/08/18 00:26:03;;;;;;;9.98;4.85;;;;;;;25.97;66.86;100426.22;2110637;28;20097;-74
2022/08/18 00:27:28;;;;;;;11.73;4.60;;;;;;;25.96;66.67;100421.75;2106048;28;20451;-74
2022/08/18 00:28:49;;;;;;;10.93;5.10;;;;;;;25.96;66.97;100424.47;2104020;28;20075;-74
2022/08/18 00:30:18;;;;;;;13.82;5.22;;;;;;;25.97;66.84;100415.38;2097384;28;20067;-74
2022/08/18 00:31:41;;;;;;;9.45;5.20;;;;;;;25.96;66.72;100419.03;2103106;28;20032;-74
2022/08/18 00:33:04;;;;;;;9.77;5.28;;;;;;;25.95;66.91;100423.56;2102600;28;20047;-74
2022/08/18 00:34:25;;;;;;;10.48;5.28;;;;;;;25.96;67.15;100419.91;2118759;27;20118;-74
2022/08/18 00:35:48;;;;;;;14.80;5.05;;;;;;;25.94;67.10;100418.25;2100302;28;20057;-74
2022/08/18 00:37:09;;;;;;;14.57;5.25;;;;;;;25.93;67.49;100417.38;2101120;28;20075;-74
2022/08/18 00:38:32;;;;;;;12.35;4.90;;;;;;;25.93;67.55;100417.38;2101946;28;20048;-74
2022/08/18 00:39:54;;;;;;;13.23;5.45;;;;;;;25.93;67.61;100409.25;2092448;28;20040;-74
2022/08/18 00:41:17;;;;;;;13.95;6.13;;;;;;;25.94;67.40;100419.13;2108723;27;20051;-74
2022/08/18 00:42:44;;;;;;;10.80;6.55;;;;;;;25.95;67.43;100418.16;2105408;28;20028;-74
2022/08/18 00:44:07;;;;;;;19.45;5.32;;;;;;;25.94;67.73;100419.13;2095148;28;20113;-74
2022/08/18 00:45:35;;;;;;;12.60;5.13;;;;;;;25.96;67.76;100419.91;2098194;28;20063;-74
2022/08/18 00:46:58;;;;;;;12.27;5.78;;;;;;;25.95;67.79;100420.88;2104109;28;20420;-73
2022/08/18 00:48:19;;;;;;;8.40;4.75;;;;;;;25.94;67.71;100418.25;2118838;27;20047;-74
2022/08/18 00:49:44;;;;;;;11.93;4.95;;;;;;;25.94;67.87;100416.41;2107468;28;20138;-74
2022/08/18 00:51:13;;;;;;;10.70;5.35;;;;;;;25.95;67.91;100418.16;2102770;28;20139;-74
2022/08/18 00:52:35;;;;;;;11.63;5.10;;;;;;;25.95;68.08;100420.88;2104037;28;20101;-74
2022/08/18 00:54:03;;;;;;;17.13;7.20;;;;;;;25.95;68.05;100409.16;2102552;28;20039;-74
2022/08/18 00:55:28;;;;;;;11.32;5.32;;;;;;;25.95;68.22;100414.59;2106049;28;20097;-74
2022/08/18 00:56:53;;;;;;;14.55;5.18;;;;;;;25.94;68.25;100411.00;2107582;28;20063;-74
2022/08/18 00:58:20;;;;;;;10.00;4.80;;;;;;;25.93;68.39;100406.53;2104093;28;20431;-74
2022/08/18 00:59:48;;;;;;;11.35;5.35;;;;;;;25.95;68.32;100409.16;2105340;28;20052;-74
2022/08/18 01:01:14;;;;;;;8.80;4.85;;;;;;;25.96;68.52;100419.03;2097302;28;20147;-74
2022/08/18 01:02:42;;;;;;;11.45;4.88;;;;;;;25.95;68.66;100404.63;2096064;28;20040;-73
2022/08/18 01:04:10;;;;;;;14.57;5.63;;;;;;;25.97;68.71;100399.16;2114469;27;20552;-74
2022/08/18 01:05:39;;;;;;;12.02;4.78;;;;;;;25.98;68.62;100411.72;2097138;28;20044;-74
2022/08/18 01:07:06;;;;;;;10.02;5.40;;;;;;;25.98;68.69;100411.72;2095731;28;20547;-75
2022/08/18 01:08:28;;;;;;;12.20;4.93;;;;;;;25.98;68.83;100409.91;2097163;28;20111;-75
2022/08/18 01:09:52;;;;;;;14.02;5.43;;;;;;;25.99;68.73;100411.63;2104749;28;20664;-74
2022/08/18 01:11:14;;;;;;;12.05;5.55;;;;;;;26.00;68.81;100413.38;2106459;28;20067;-74
2022/08/18 01:12:37;;;;;;;15.93;6.13;;;;;;;26.01;68.65;100408.84;2095763;28;20055;-74
2022/08/18 01:13:59;;;;;;;11.40;5.80;;;;;;;26.01;69.01;100409.72;2101391;28;20071;-74
2022/08/18 01:15:23;;;;;;;8.50;5.03;;;;;;;26.01;69.29;100404.31;2103081;28;20036;-74
2022/08/18 01:22:01;;;;;;;10.73;5.65;;;;;;;25.99;69.70;100400.81;2108971;28;20138;-74
2022/08/18 01:23:26;;;;;;;11.38;5.75;;;;;;;25.98;69.90;100396.38;2112195;28;20138;-73
2022/08/18 01:26:31;;;;;;;16.27;5.90;;;;;;;25.95;70.36;100390.25;2105076;28;20044;-73
2022/08/18 01:27:55;;;;;;;10.75;5.38;;;;;;;25.95;70.20;100388.41;2102762;28;20178;-74
2022/08/18 01:29:19;;;;;;;9.10;5.70;;;;;;;25.95;70.39;100387.53;2102140;28;20207;-74
2022/08/18 01:30:48;;;;;;;10.88;5.53;;;;;;;25.94;70.27;100389.34;2111406;28;20044;-73
2022/08/18 01:32:13;;;;;;;11.10;5.40;;;;;;;25.94;70.26;100389.34;2104713;28;20056;-73
2022/08/18 01:33:37;;;;;;;11.07;5.20;;;;;;;25.94;70.26;100388.47;2101371;28;20039;-73
2022/08/18 01:34:59;;;;;;;11.32;6.35;;;;;;;25.93;70.05;100384.91;2103143;28;20036;-74
2022/08/18 01:36:23;;;;;;;11.07;5.20;;;;;;;25.93;70.16;100389.47;2110040;28;20083;-74
2022/08/18 01:37:44;;;;;;;9.82;4.80;;;;;;;25.92;69.76;100388.59;2105003;28;20104;-74
2022/08/18 01:39:10;;;;;;;11.07;5.32;;;;;;;25.92;69.61;100394.00;2104866;28;20054;-74
2022/08/18 01:40:31;;;;;;;10.82;5.72;;;;;;;25.91;69.67;100397.66;2098517;28;20444;-73
2022/08/18 01:41:54;;;;;;;9.60;5.18;;;;;;;25.88;69.83;100389.69;2098047;28;20094;-74
2022/08/18 01:43:15;;;;;;;11.73;5.30;;;;;;;25.88;69.69;100389.69;2102572;28;20082;-73
2022/08/18 01:44:39;;;;;;;8.02;4.65;;;;;;;25.87;69.46;100385.22;2099464;28;20052;-74
2022/08/18 01:46:00;;;;;;;7.30;4.82;;;;;;;25.87;69.42;100393.34;2101234;28;20671;-74
2022/08/18 01:47:23;;;;;;;12.70;4.88;;;;;;;25.85;69.12;100383.59;2102476;28;20048;-74
2022/08/18 01:48:45;;;;;;;12.60;4.90;;;;;;;25.84;69.11;100376.41;2119273;27;20039;-73
2022/08/18 01:50:09;;;;;;;8.68;4.53;;;;;;;25.82;68.80;100387.31;2102319;28;20060;-73
2022/08/18 01:51:33;;;;;;;9.25;4.68;;;;;;;25.82;68.83;100390.03;2105449;28;20036;-74
2022/08/18 01:52:56;;;;;;;8.77;4.80;;;;;;;25.82;68.55;100383.72;2102733;28;20044;-74
2022/08/18 01:54:19;;;;;;;8.45;4.53;;;;;;;25.82;68.55;100383.72;2108605;27;20125;-73
2022/08/18 01:55:44;;;;;;;9.30;4.78;;;;;;;25.82;68.29;100381.91;2096925;28;20079;-73
2022/08/18 01:57:05;;;;;;;6.28;3.95;;;;;;;25.81;68.45;100377.44;2094541;28;20094;-73
2022/08/18 01:58:28;;;;;;;8.05;4.30;;;;;;;25.81;68.25;100382.84;2093879;28;20098;-73
2022/08/18 01:59:49;;;;;;;10.50;4.95;;;;;;;25.78;68.26;100378.50;2099496;28;20153;-74
2022/08/18 02:01:16;;;;;;;11.68;4.63;;;;;;;25.78;68.17;100383.03;2101820;28;20048;-73
2022/08/18 02:02:38;;;;;;;7.05;4.35;;;;;;;25.76;68.05;100372.28;2100491;28;20071;-73
2022/08/18 02:04:01;;;;;;;12.63;5.32;;;;;;;25.75;67.93;100378.66;2118087;27;20124;-74
2022/08/18 02:05:30;;;;;;;9.13;4.80;;;;;;;25.74;67.71;100376.91;2107736;28;20048;-73
2022/08/18 02:06:53;;;;;;;11.07;4.70;;;;;;;25.72;67.78;100367.13;2103250;28;20051;-74
2022/08/18 02:08:16;;;;;;;8.95;5.07;;;;;;;25.71;67.68;100370.78;2102016;28;20138;-73
2022/08/18 02:09:41;;;;;;;9.77;4.95;;;;;;;25.70;67.74;100379.84;2101306;28;20134;-73
2022/08/18 02:11:03;;;;;;;10.75;4.57;;;;;;;25.68;67.80;100366.41;2119464;27;20555;-74
2022/08/18 02:12:25;;;;;;;9.80;4.65;;;;;;;25.67;67.87;100367.34;2109145;28;20075;-74
2022/08/18 02:13:47;;;;;;;10.07;4.90;;;;;;;25.67;67.73;100369.19;2108772;28;20044;-73
2022/08/18 02:15:11;;;;;;;13.13;5.63;;;;;;;25.68;67.45;100370.94;2100069;28;20135;-73
2022/08/18 02:16:33;;;;;;;8.90;4.65;;;;;;;25.67;67.42;100364.66;2105102;28;20077;-74
2022/08/18 02:17:55;;;;;;;9.77;4.40;;;;;;;25.65;67.44;100358.47;2093322;28;20521;-73
2022/08/18 02:19:17;;;;;;;12.43;4.47;;;;;;;25.66;67.29;100359.34;2091316;28;20082;-73
2022/08/18 02:20:39;;;;;;;14.13;5.50;;;;;;;25.65;67.58;100358.47;2098632;28;20044;-73
2022/08/18 02:22:01;;;;;;;10.55;4.30;;;;;;;25.66;67.28;100364.75;2109418;28;20097;-74
2022/08/18 02:23:24;;;;;;;7.93;4.40;;;;;;;25.65;67.20;100363.00;2104526;28;20810;-73
2022/08/18 02:24:48;;;;;;;9.38;4.35;;;;;;;25.64;67.07;100358.56;2113259;27;20424;-74
2022/08/18 02:26:17;;;;;;;10.90;4.90;;;;;;;25.63;66.96;100356.78;2106789;28;20085;-73
2022/08/18 02:27:40;;;;;;;10.75;4.20;;;;;;;25.60;67.10;100359.69;2124877;27;20586;-74
2022/08/18 02:29:03;;;;;;;7.07;4.03;;;;;;;25.59;66.86;100353.41;2100337;28;20155;-74
2022/08/18 02:30:26;;;;;;;10.98;4.20;;;;;;;25.59;66.78;100355.22;2099409;28;20087;-74
2022/08/18 02:31:47;;;;;;;8.75;4.60;;;;;;;25.57;66.77;100352.59;2099884;28;20608;-74
2022/08/18 02:33:11;;;;;;;10.43;4.43;;;;;;;25.56;66.67;100350.81;2101552;28;20059;-74
2022/08/18 02:34:32;;;;;;;12.05;4.45;;;;;;;25.57;66.38;100348.97;2117967;27;20043;-73
2022/08/18 02:35:55;;;;;;;8.20;4.20;;;;;;;25.57;66.51;100354.38;2098056;28;20075;-74
2022/08/18 02:37:16;;;;;;;11.27;4.43;;;;;;;25.56;66.45;100352.63;2093939;28;20369;-74
2022/08/18 02:38:40;;;;;;;10.25;3.95;;;;;;;25.56;66.33;100347.22;2115341;27;20138;-74
2022/08/18 02:40:04;;;;;;;9.90;3.95;;;;;;;25.56;66.19;100348.09;2107248;28;20564;-73
2022/08/18 02:41:27;;;;;;;10.23;4.25;;;;;;;25.57;65.76;100351.69;2104970;28;20464;-74
2022/08/18 02:42:48;;;;;;;9.02;4.20;;;;;;;25.56;65.93;100349.94;2102420;28;20052;-73
2022/08/18 02:44:11;;;;;;;10.05;3.67;;;;;;;25.56;65.85;100345.41;2101001;28;20131;-74
2022/08/18 02:45:33;;;;;;;8.77;4.18;;;;;;;25.57;65.66;100343.56;2102458;28;20605;-74
2022/08/18 02:46:55;;;;;;;8.93;3.95;;;;;;;25.57;65.26;100344.47;2108663;28;20043;-73
2022/08/18 02:48:18;;;;;;;8.38;3.78;;;;;;;25.57;65.35;100341.78;2104924;28;20052;-73
2022/08/18 02:49:41;;;;;;;12.98;4.55;;;;;;;25.59;64.98;100341.72;2101839;28;20055;-74
2022/08/18 02:51:06;;;;;;;9.90;4.00;;;;;;;25.59;64.81;100339.00;2098436;28;20052;-74
2022/08/18 02:52:31;;;;;;;7.88;3.78;;;;;;;25.59;64.59;100344.41;2101831;28;20074;-74
2022/08/18 02:53:53;;;;;;;8.63;3.88;;;;;;;25.58;64.64;100337.25;2100157;28;20063;-74
2022/08/18 02:55:17;;;;;;;8.95;3.90;;;;;;;25.56;64.60;100334.59;2101902;28;20051;-74
2022/08/18 02:56:38;;;;;;;6.35;3.70;;;;;;;25.54;64.59;100333.78;2104768;28;20148;-74
2022/08/18 02:58:02;;;;;;;8.18;3.78;;;;;;;25.56;64.42;100334.59;2104766;28;20103;-73
2022/08/18 02:59:27;;;;;;;9.18;3.90;;;;;;;25.57;64.00;100335.47;2103139;28;20051;-74
2022/08/18 03:00:48;;;;;;;9.52;3.88;;;;;;;25.57;63.92;100330.06;2094084;28;20090;-73
2022/08/18 03:02:12;;;;;;;9.20;3.80;;;;;;;25.56;63.79;100333.72;2108397;28;20055;-73
2022/08/18 03:03:35;;;;;;;8.02;3.83;;;;;;;25.56;63.36;100329.19;2103483;28;20032;-74
2022/08/18 03:04:57;;;;;;;7.25;3.65;;;;;;;25.58;63.10;100337.25;2085292;28;20056;-74
2022/08/18 03:06:20;;;;;;;8.98;3.83;;;;;;;25.61;62.99;100328.97;2104540;28;20071;-74
2022/08/18 03:07:44;;;;;;;8.15;3.00;;;;;;;25.61;63.05;100334.38;2103727;28;20079;-73
2022/08/18 03:09:08;;;;;;;6.60;3.30;;;;;;;25.61;62.56;100329.84;2100959;28;20055;-74
2022/08/18 03:10:32;;;;;;;7.38;4.18;;;;;;;25.62;62.44;100330.72;2111045;28;20044;-73
2022/08/18 03:11:53;;;;;;;7.55;3.30;;;;;;;25.60;62.76;100335.34;2098465;28;20131;-73
2022/08/18 03:13:16;;;;;;;8.80;4.05;;;;;;;25.60;62.57;100332.66;2113297;28;20047;-73
2022/08/18 03:14:38;;;;;;;8.95;3.65;;;;;;;25.59;62.54;100326.34;2113170;28;20054;-73
2022/08/18 03:16:01;;;;;;;10.70;4.22;;;;;;;25.57;62.26;100336.38;2097576;28;20543;-74
2022/08/18 03:17:24;;;;;;;9.05;3.50;;;;;;;25.55;62.15;100335.53;2106407;28;20070;-74
2022/08/18 03:18:46;;;;;;;7.72;3.38;;;;;;;25.55;62.39;100331.94;2108742;28;20064;-73
2022/08/18 03:20:09;;;;;;;9.90;3.58;;;;;;;25.56;62.18;100333.72;2120475;27;20051;-74
2022/08/18 03:21:34;;;;;;;8.73;3.42;;;;;;;25.57;62.18;100338.16;2099708;28;20079;-74
2022/08/18 03:22:56;;;;;;;8.48;3.45;;;;;;;25.56;62.04;100331.88;2093396;28;20640;-73
2022/08/18 03:24:18;;;;;;;7.93;3.42;;;;;;;25.57;61.97;100335.47;2100384;28;20487;-74
2022/08/18 03:25:46;;;;;;;7.88;3.60;;;;;;;25.58;61.55;100334.53;2095117;28;20044;-74
2022/08/18 03:27:09;;;;;;;7.88;3.22;;;;;;;25.59;61.50;100336.28;2104280;28;20491;-74
2022/08/18 03:28:30;;;;;;;8.98;3.22;;;;;;;25.62;61.40;100339.69;2101729;28;20144;-73
2022/08/18 03:29:52;;;;;;;6.88;3.20;;;;;;;25.64;61.63;100332.38;2119307;27;20047;-74
2022/08/18 03:31:16;;;;;;;7.38;3.42;;;;;;;25.66;61.34;100337.72;2100555;28;20080;-74
2022/08/18 03:32:38;;;;;;;8.98;3.60;;;;;;;25.67;61.55;100336.75;2106682;28;20051;-74
2022/08/18 03:34:00;;;;;;;6.70;2.95;;;;;;;25.68;61.43;100341.19;2104118;28;20056;-74
2022/08/18 03:35:22;;;;;;;;;;;;;;;25.65;61.36;100341.38;2098428;28;20056;-73
2022/08/18 03:36:45;;;;;;;6.85;3.30;;;;;;;25.65;61.54;100333.25;2100121;28;19962;-73
2022/08/18 03:38:07;;;;;;;11.15;3.92;;;;;;;25.68;61.51;100335.78;2106286;28;20054;-74
2022/08/18 03:39:29;;;;;;;8.85;3.42;;;;;;;25.70;61.34;100334.75;2102013;28;20037;-74
2022/08/18 03:40:53;;;;;;;8.18;2.58;;;;;;;25.72;61.31;100332.84;2102532;28;20101;-74
2022/08/18 03:42:16;;;;;;;7.00;3.20;;;;;;;25.76;61.59;100338.97;2095142;28;20106;-73
2022/08/18 03:43:38;;;;;;;8.63;3.00;;;;;;;25.78;61.40;100340.63;2100345;28;20505;-74
2022/08/18 03:45:00;;;;;;;5.75;3.13;;;;;;;25.81;61.38;100331.47;2102706;28;20498;-73
2022/08/18 03:46:23;;;;;;;11.55;3.40;;;;;;;25.86;61.32;100340.22;2103412;28;20052;-73
2022/08/18 03:47:46;;;;;;;11.75;3.95;;;;;;;25.87;61.45;100333.84;2102979;28;20051;-74
2022/08/18 03:49:07;;;;;;;10.20;3.13;;;;;;;25.89;61.40;100331.94;2104436;28;20052;-73
2022/08/18 03:50:31;;;;;;;10.68;3.92;;;;;;;25.90;61.23;100333.69;2097122;28;20578;-73
2022/08/18 03:51:54;;;;;;;8.45;3.25;;;;;;;25.91;61.21;100340.84;2095514;28;20040;-74
2022/08/18 03:53:17;;;;;;;8.88;3.47;;;;;;;25.93;61.45;100332.66;2102719;28;20082;-73
2022/08/18 03:54:38;;;;;;;6.57;2.72;;;;;;;25.94;61.45;100346.06;2102506;28;20067;-74
2022/08/18 03:56:08;;;;;;;8.10;3.40;;;;;;;25.98;61.55;100339.56;2111844;28;20761;-74
2022/08/18 03:57:32;;;;;;;7.82;2.80;;;;;;;26.01;61.55;100333.97;2106032;28;20394;-73
2022/08/18 03:58:56;;;;;;;11.13;3.17;;;;;;;26.06;61.62;100339.09;2093799;28;21924;-74
2022/08/18 04:00:19;;;;;;;6.65;3.40;;;;;;;26.10;61.54;100338.00;2099805;28;20147;-74
2022/08/18 04:01:42;;;;;;;12.68;3.58;;;;;;;26.14;61.51;100340.44;2104110;28;20044;-73
2022/08/18 04:03:06;;;;;;;8.18;2.97;;;;;;;26.19;61.39;100341.06;2097702;28;20699;-73
2022/08/18 04:04:28;;;;;;;8.68;3.60;;;;;;;26.25;61.19;100323.66;2101946;28;20050;-73
2022/08/18 04:05:50;;;;;;;8.48;3.17;;;;;;;26.31;61.28;100344.09;2103583;28;20404;-74
2022/08/18 04:07:16;;;;;;;8.05;3.10;;;;;;;26.38;61.04;100323.84;2094975;28;20737;-74
2022/08/18 04:08:37;;;;;;;8.60;2.90;;;;;;;26.45;61.14;100336.06;2117325;27;20084;-74
2022/08/18 04:10:00;;;;;;;8.90;3.05;;;;;;;26.51;61.03;100333.00;2104715;28;21878;-73
2022/08/18 04:11:24;;;;;;;7.63;3.00;;;;;;;26.61;60.71;100336.06;2118545;27;20575;-73
2022/08/18 04:12:47;;;;;;;4.72;2.80;;;;;;;26.66;60.78;100332.09;2098200;28;20826;-73
2022/08/18 04:14:09;;;;;;;8.68;3.40;;;;;;;26.74;60.57;100335.25;2100669;28;20048;-73
2022/08/18 04:15:31;;;;;;;8.02;3.03;;;;;;;26.82;60.43;100322.16;2092552;28;20044;-72
2022/08/18 04:16:53;;;;;;;7.30;2.78;;;;;;;26.89;60.35;100328.09;2108968;28;20565;-73
2022/08/18 04:18:15;;;;;;;7.78;2.78;;;;;;;26.98;60.00;100321.28;2100061;28;20050;-74
2022/08/18 04:19:38;;;;;;;8.20;3.00;;;;;;;27.04;59.52;100320.91;2104823;28;20079;-74
2022/08/18 04:21:01;;;;;;;7.13;2.80;;;;;;;27.11;59.21;100334.00;2105535;28;20040;-74
2022/08/18 04:22:25;;;;;;;6.20;2.45;;;;;;;27.18;59.00;100326.34;2097350;28;20048;-73
2022/08/18 04:23:46;;;;;;;6.20;2.10;;;;;;;27.27;58.92;100323.09;2101398;28;20047;-74
2022/08/18 04:25:10;;;;;;;6.43;2.78;;;;;;;27.35;58.50;100328.94;2087341;28;20121;-74
2022/08/18 04:26:34;;;;;;;7.93;2.50;;;;;;;27.44;58.14;100328.38;2091128;28;20071;-73
2022/08/18 04:28:00;;;;;;;6.38;2.05;;;;;;;27.51;57.64;100329.75;2109266;28;20584;-74
2022/08/18 04:29:21;;;;;;;4.35;2.40;;;;;;;27.61;57.55;100338.22;2104113;28;20040;-74
2022/08/18 04:30:44;;;;;;;6.57;2.55;;;;;;;27.71;57.35;100331.25;2101144;28;20147;-73
2022/08/18 04:32:07;;;;;;;12.85;3.10;;;;;;;27.83;57.21;100341.34;2095137;28;20033;-74
2022/08/18 04:33:28;;;;;;;11.35;2.25;;;;;;;27.95;56.89;100345.16;2085520;28;20057;-73
2022/08/18 04:34:51;;;;;;;10.85;2.67;;;;;;;28.02;56.36;100347.38;2084623;28;20072;-74
2022/08/18 04:36:14;;;;;;;6.10;2.17;;;;;;;28.12;56.28;100344.94;2087184;28;20053;-74
2022/08/18 04:37:37;;;;;;;8.30;2.42;;;;;;;28.22;55.97;100354.28;2086430;28;20042;-74
2022/08/18 04:38:59;;;;;;;6.35;2.33;;;;;;;28.31;55.77;100347.38;2089068;28;20604;-74
2022/08/18 04:40:22;;;;;;;6.25;2.38;;;;;;;28.41;55.74;100346.72;2086500;28;20520;-73
2022/08/18 04:41:44;;;;;;;6.93;2.40;;;;;;;28.51;55.47;100349.69;2085306;28;20044;-74
2022/08/18 04:43:10;;;;;;;7.07;2.80;;;;;;;28.62;55.21;100357.16;2093686;28;20080;-74
2022/08/18 04:44:33;;;;;;;4.80;2.33;;;;;;;28.73;55.04;100355.47;2080927;28;20449;-74
2022/08/18 04:46:00;;;;;;;9.23;2.38;;;;;;;28.84;54.97;100352.91;2081784;28;20041;-74
2022/08/18 04:47:22;;;;;;;9.85;2.40;;;;;;;28.97;54.82;100357.53;2079137;28;20053;-74
2022/08/18 04:48:46;;;;;;;6.22;2.10;;;;;;;29.11;54.58;100350.19;2080989;28;20067;-74
2022/08/18 04:50:08;;;;;;;8.70;2.95;;;;;;;29.22;53.96;100349.47;2079473;28;20053;-74
2022/08/18 04:51:31;;;;;;;6.80;2.30;;;;;;;29.29;53.74;100350.78;2083374;28;20349;-74
2022/08/18 04:54:37;;;;;;;8.13;2.40;;;;;;;29.53;53.26;100353.72;2087326;28;20036;-74
2022/08/18 04:56:00;;;;;;;7.90;2.72;;;;;;;29.64;52.89;100346.53;2086905;28;20059;-74
2022/08/18 04:57:24;;;;;;;7.05;2.53;;;;;;;29.77;52.77;100349.25;2078220;28;20042;-74
2022/08/18 04:58:51;;;;;;;5.95;2.22;;;;;;;29.91;52.55;100345.56;2078070;28;20520;-74
2022/08/18 05:00:13;;;;;;;10.27;2.65;;;;;;;30.05;52.37;100349.09;2083611;28;20504;-74
2022/08/18 05:01:38;;;;;;;6.85;2.30;;;;;;;30.22;51.69;100339.69;2085205;28;20053;-74
2022/08/18 05:03:01;;;;;;;6.47;2.65;;;;;;;30.34;51.40;100343.34;2078314;28;20494;-73
2022/08/18 05:04:24;;;;;;;6.60;2.40;;;;;;;30.51;50.53;100351.22;2086156;28;20493;-74
2022/08/18 05:05:46;;;;;;;6.93;2.38;;;;;;;30.62;50.08;100350.41;2089091;28;20551;-74
2022/08/18 05:07:10;;;;;;;4.32;1.67;;;;;;;30.75;49.58;100349.38;2080605;28;20045;-74
2022/08/18 05:08:32;;;;;;;4.97;2.03;;;;;;;30.80;49.01;100358.06;2086189;28;20041;-73
2022/08/18 05:09:55;;;;;;;6.78;2.40;;;;;;;30.87;48.93;100343.00;2089029;28;20075;-74
2022/08/18 05:11:18;;;;;;;8.25;2.70;;;;;;;31.00;48.52;100342.06;2079349;28;20057;-74
2022/08/18 05:12:42;;;;;;;3.42;1.88;;;;;;;31.18;48.14;100336.09;2077981;28;20053;-74
2022/08/18 05:14:07;;;;;;;7.03;2.55;;;;;;;31.24;48.10;100345.69;2082556;28;20105;-73
2022/08/18 05:15:30;;;;;;;7.72;2.70;;;;;;;31.30;47.64;100347.97;2085363;28;20050;-74
2022/08/18 05:16:51;;;;;;;7.35;2.50;;;;;;;31.33;47.41;100344.97;2072381;28;20061;-73
2022/08/18 05:18:14;;;;;;;4.97;2.15;;;;;;;31.41;47.09;100353.44;2085998;28;20460;-74
2022/08/18 05:19:37;;;;;;;7.65;2.38;;;;;;;31.54;47.25;100354.22;2086011;28;20044;-74
2022/08/18 05:21:00;;;;;;;7.28;2.70;;;;;;;31.70;46.67;100356.66;2088795;28;20543;-74
2022/08/18 05:22:23;;;;;;;6.72;2.40;;;;;;;31.85;46.46;100360.91;2085453;28;20128;-74
2022/08/18 05:23:47;;;;;;;6.75;2.25;;;;;;;32.03;45.89;100374.97;2077955;28;20138;-74
2022/08/18 05:25:12;;;;;;;10.85;3.67;;;;;;;32.20;45.55;100359.97;2083544;28;20087;-75
2022/08/18 05:26:35;;;;;;;10.90;2.60;;;;;;;32.36;44.98;100361.31;2084333;28;20037;-73
2022/08/18 05:27:59;;;;;;;6.72;2.25;;;;;;;32.51;44.52;100366.53;2093171;28;20076;-74
2022/08/18 05:29:22;;;;;;;7.05;2.70;;;;;;;32.67;44.34;100361.59;2086172;28;20106;-74
2022/08/18 05:30:44;;;;;;;5.95;2.53;;;;;;;32.79;43.68;100368.78;2085743;28;20050;-74
2022/08/18 05:32:06;;;;;;;8.27;2.33;;;;;;;32.86;43.53;100366.41;2083083;28;20052;-73
2022/08/18 05:33:29;;;;;;;8.30;2.50;;;;;;;32.94;43.42;100372.09;2086029;28;20049;-74
2022/08/18 05:34:50;;;;;;;9.75;2.55;;;;;;;33.05;43.41;100361.97;2091876;28;20090;-74
2022/08/18 05:36:26;;;;;;;7.47;2.92;;;;;;;33.15;42.96;100373.88;2092971;28;20151;-74
2022/08/18 05:38:04;;;;;;;6.70;2.92;;;;;;;33.20;42.58;100371.69;2090764;28;20045;-74
2022/08/18 05:39:32;;;;;;;9.10;2.58;;;;;;;33.23;42.40;100371.41;2094955;28;20041;-74
2022/08/18 05:41:08;;;;;;;9.55;2.60;;;;;;;33.26;42.10;100364.81;2101652;28;20451;-74
2022/08/18 05:42:35;;;;;;;6.38;1.98;;;;;;;33.40;41.99;100377.31;2104325;28;20090;-74
2022/08/18 05:44:00;;;;;;;9.38;2.58;;;;;;;33.47;42.08;100384.88;2101451;28;20040;-74
2022/08/18 05:45:23;;;;;;;8.60;2.50;;;;;;;33.53;41.65;100383.47;2094582;28;20722;-74
2022/08/18 05:46:52;;;;;;;6.63;2.20;;;;;;;33.47;41.56;100376.66;2094286;28;20060;-74
2022/08/18 05:48:13;;;;;;;6.55;2.72;;;;;;;33.62;41.43;100383.53;2086892;28;20505;-74
2022/08/18 05:49:37;;;;;;;9.10;2.50;;;;;;;33.85;41.31;100389.78;2083466;28;20051;-74
2022/08/18 05:51:05;;;;;;;9.18;2.60;;;;;;;34.08;40.68;100378.66;2095708;28;20496;-74
2022/08/18 05:52:31;;;;;;;8.32;3.13;;;;;;;34.20;40.50;100383.06;2093629;28;20048;-74
2022/08/18 05:57:22;;;;;;;4.50;2.45;;;;;;;34.36;40.26;100389.81;2093881;28;20062;-74
2022/08/18 05:58:50;;;;;;;7.35;2.63;;;;;;;34.37;40.30;100396.16;2094446;28;20463;-74
2022/08/18 06:00:15;;;;;;;5.90;2.33;;;;;;;34.39;40.29;100396.91;2096583;28;20178;-74
2022/08/18 06:01:43;;;;;;;6.93;2.45;;;;;;;34.46;40.07;100399.97;2089721;28;20140;-74
2022/08/18 06:03:13;;;;;;;6.32;2.08;;;;;;;34.56;39.99;100395.38;2094576;28;20151;-74
2022/08/18 06:04:43;;;;;;;6.07;2.45;;;;;;;34.69;39.94;100398.75;2095348;28;20512;-73
2022/08/18 06:06:12;;;;;;;5.78;2.45;;;;;;;34.77;40.07;100386.09;2083551;28;20040;-74
2022/08/18 06:07:43;;;;;;;7.90;2.60;;;;;;;34.85;40.13;100390.88;2091421;28;20044;-74
2022/08/18 06:09:12;;;;;;;6.97;2.40;;;;;;;34.96;40.09;100399.00;2082509;28;20082;-74
2022/08/18 06:10:36;;;;;;;8.98;2.58;;;;;;;35.13;39.82;100403.78;2094592;28;20037;-74
2022/08/18 06:12:07;;;;;;;6.00;2.63;;;;;;;35.26;39.52;100400.78;2086914;28;20071;-75
2022/08/18 06:13:41;;;;;;;7.65;2.53;;;;;;;35.25;39.45;100392.72;2092884;28;20470;-73
2022/08/18 06:15:11;;;;;;;7.78;2.80;;;;;;;35.17;39.60;100391.53;2088285;28;20121;-74
2022/08/18 06:16:54;;;;;;;7.45;2.33;;;;;;;35.01;39.75;100398.56;2087468;28;20099;-74
2022/08/18 06:18:42;;;;;;;5.65;2.38;;;;;;;34.79;39.94;100405.13;2096066;28;20135;-74
2022/08/18 06:20:15;;;;;;;8.00;2.75;;;;;;;34.57;40.58;100392.50;2091500;28;20056;-74
2022/08/18 06:21:45;;;;;;;11.18;2.67;;;;;;;34.44;40.70;100389.13;2101549;28;20046;-73
2022/08/18 06:23:23;;;;;;;8.48;2.60;;;;;;;34.28;41.16;100402.47;2090421;28;20827;-74
2022/08/18 06:24:53;;;;;;;5.70;2.90;;;;;;;34.18;41.31;100407.88;2089425;28;20048;-74
2022/08/18 06:26:19;;;;;;;9.10;2.53;;;;;;;34.05;41.73;100399.00;2094244;28;20248;-73
2022/08/18 06:27:54;;;;;;;5.47;2.67;;;;;;;34.05;41.93;100407.22;2085540;28;20073;-73
2022/08/18 06:29:28;;;;;;;8.18;3.17;;;;;;;34.20;41.61;100410.50;2083455;28;20457;-73
2022/08/18 06:30:58;;;;;;;8.68;2.80;;;;;;;34.25;41.41;100400.00;2088102;28;20653;-73
2022/08/18 06:32:31;;;;;;;7.43;2.80;;;;;;;34.15;41.43;100420.97;2101333;28;20068;-74
2022/08/18 06:34:03;;;;;;;12.05;3.25;;;;;;;34.12;41.60;100413.03;2095977;28;20529;-73
2022/08/18 06:35:35;;;;;;;6.15;2.80;;;;;;;34.08;41.48;100417.03;2098942;28;20052;-73
2022/08/18 06:37:07;;;;;;;7.82;2.50;;;;;;;34.19;41.45;100408.75;2102211;28;20149;-73
2022/08/18 06:38:42;;;;;;;7.72;2.70;;;;;;;34.17;41.04;100418.97;2096166;28;20093;-73
2022/08/18 06:40:05;;;;;;;9.18;2.90;;;;;;;34.05;41.23;100414.56;2098396;28;20507;-73
2022/08/18 06:41:37;;;;;;;8.00;2.75;;;;;;;34.08;41.19;100420.63;2100968;28;20044;-73
2022/08/18 06:43:00;;;;;;;9.05;2.60;;;;;;;34.10;41.22;100426.00;2102700;28;20667;-73